sensor_id;sensor_type;location;lat;lon;timestamp;temperature;humidity
30764;DHT22;17497;51.476;7.770;2023-03-21T00:00:14;9.10;99.90
30764;DHT22;17497;51.476;7.770;2023-03-21T00:02:41;9.20;99.90
30764;DHT22;17497;51.476;7.770;2023-03-21T00:05:08;9.10;99.90
30764;DHT22;17497;51.476;7.770;2023-03-21T00:07:41;9.10;99.90
30764;DHT22;17497;51.476;7.770;2023-03-21T00:10:08;9.10;99.90
30764;DHT22;17497;51.476;7.770;2023-03-21T00:12:43;9.00;99.90
30764;DHT22;17497;51.476;7.770;2023-03-21T00:15:10;9.10;99.90
30764;DHT22;17497;51.476;7.770;2023-03-21T00:17:38;9.10;99.90
30764;DHT22;17497;51.476;7.770;2023-03-21T00:20:05;9.10;99.90
30764;DHT22;17497;51.476;7.770;2023-03-21T00:22:35;9.10;99.90
30764;DHT22;17497;51.476;7.770;2023-03-21T00:25:02;9.10;99.90
30764;DHT22;17497;51.476;7.770;2023-03-21T00:27:28;9.10;99.90
30764;DHT22;17497;51.476;7.770;2023-03-21T00:30:15;9.10;99.90
30764;DHT22;17497;51.476;7.770;2023-03-21T00:32:42;9.20;99.90
30764;DHT22;17497;51.476;7.770;2023-03-21T00:35:21;9.20;99.90
30764;DHT22;17497;51.476;7.770;2023-03-21T00:38:07;9.10;99.90
30764;DHT22;17497;51.476;7.770;2023-03-21T00:40:34;9.10;99.90
30764;DHT22;17497;51.476;7.770;2023-03-21T00:43:12;9.10;99.90
30764;DHT22;17497;51.476;7.770;2023-03-21T00:45:44;9.20;99.90
30764;DHT22;17497;51.476;7.770;2023-03-21T00:48:11;9.20;99.90
30764;DHT22;17497;51.476;7.770;2023-03-21T00:50:38;9.20;99.90
30764;DHT22;17497;51.476;7.770;2023-03-21T00:53:05;9.20;99.90
30764;DHT22;17497;51.476;7.770;2023-03-21T00:55:32;9.30;99.90
30764;DHT22;17497;51.476;7.770;2023-03-21T00:57:59;9.30;99.90
30764;DHT22;17497;51.476;7.770;2023-03-21T01:00:28;9.30;99.90
30764;DHT22;17497;51.476;7.770;2023-03-21T01:02:55;9.30;99.90
30764;DHT22;17497;51.476;7.770;2023-03-21T01:05:33;9.40;99.90
30764;DHT22;17497;51.476;7.770;2023-03-21T01:08:19;9.30;99.90
30764;DHT22;17497;51.476;7.770;2023-03-21T01:10:54;9.30;99.90
30764;DHT22;17497;51.476;7.770;2023-03-21T01:13:22;9.30;99.90
30764;DHT22;17497;51.476;7.770;2023-03-21T01:15:51;9.30;99.90
30764;DHT22;17497;51.476;7.770;2023-03-21T01:18:20;9.30;99.90
30764;DHT22;17497;51.476;7.770;2023-03-21T01:20:47;9.30;99.90
30764;DHT22;17497;51.476;7.770;2023-03-21T01:23:14;9.30;99.90
30764;DHT22;17497;51.476;7.770;2023-03-21T01:25:41;9.30;99.90
30764;DHT22;17497;51.476;7.770;2023-03-21T01:28:08;9.20;99.90
30764;DHT22;17497;51.476;7.770;2023-03-21T01:30:35;9.20;99.90
30764;DHT22;17497;51.476;7.770;2023-03-21T01:33:07;9.20;99.90
30764;DHT22;17497;51.476;7.770;2023-03-21T01:35:35;9.20;99.90
30764;DHT22;17497;51.476;7.770;2023-03-21T01:38:14;9.20;99.90
30764;DHT22;17497;51.476;7.770;2023-03-21T01:40:42;9.20;99.90
30764;DHT22;17497;51.476;7.770;2023-03-21T01:48:33;9.30;99.90
30764;DHT22;17497;51.476;7.770;2023-03-21T01:51:02;9.20;99.90
30764;DHT22;17497;51.476;7.770;2023-03-21T01:53:29;9.30;99.90
30764;DHT22;17497;51.476;7.770;2023-03-21T01:55:56;9.20;99.90
30764;DHT22;17497;51.476;7.770;2023-03-21T01:58:23;9.20;99.90
30764;DHT22;17497;51.476;7.770;2023-03-21T02:00:51;9.30;99.90
30764;DHT22;17497;51.476;7.770;2023-03-21T02:03:17;9.40;99.90
30764;DHT22;17497;51.476;7.770;2023-03-21T02:06:08;9.40;99.90
30764;DHT22;17497;51.476;7.770;2023-03-21T02:08:36;9.30;99.90
30764;DHT22;17497;51.476;7.770;2023-03-21T02:11:06;9.30;99.90
30764;DHT22;17497;51.476;7.770;2023-03-21T02:13:33;9.30;99.90
30764;DHT22;17497;51.476;7.770;2023-03-21T02:16:01;9.30;99.90
30764;DHT22;17497;51.476;7.770;2023-03-21T02:26:51;9.40;99.90
30764;DHT22;17497;51.476;7.770;2023-03-21T02:40:07;9.40;99.90
30764;DHT22;17497;51.476;7.770;2023-03-21T02:47:33;9.50;99.90
30764;DHT22;17497;51.476;7.770;2023-03-21T02:52:34;9.40;99.90
30764;DHT22;17497;51.476;7.770;2023-03-21T02:55:23;9.40;99.90
30764;DHT22;17497;51.476;7.770;2023-03-21T02:57:51;9.30;99.90
30764;DHT22;17497;51.476;7.770;2023-03-21T03:00:19;9.20;99.90
30764;DHT22;17497;51.476;7.770;2023-03-21T03:02:47;9.20;99.90
30764;DHT22;17497;51.476;7.770;2023-03-21T03:05:27;9.30;99.90
30764;DHT22;17497;51.476;7.770;2023-03-21T03:20:52;9.30;99.90
30764;DHT22;17497;51.476;7.770;2023-03-21T03:28:15;9.30;99.90
30764;DHT22;17497;51.476;7.770;2023-03-21T03:30:43;9.20;99.90
30764;DHT22;17497;51.476;7.770;2023-03-21T03:33:30;9.20;99.90
30764;DHT22;17497;51.476;7.770;2023-03-21T03:35:58;9.20;99.90
30764;DHT22;17497;51.476;7.770;2023-03-21T03:38:32;9.30;99.90
30764;DHT22;17497;51.476;7.770;2023-03-21T03:41:05;9.30;99.90
30764;DHT22;17497;51.476;7.770;2023-03-21T03:43:39;9.30;99.90
30764;DHT22;17497;51.476;7.770;2023-03-21T03:46:11;9.10;99.90
30764;DHT22;17497;51.476;7.770;2023-03-21T03:48:41;9.20;99.90
30764;DHT22;17497;51.476;7.770;2023-03-21T03:51:14;9.20;99.90
30764;DHT22;17497;51.476;7.770;2023-03-21T03:53:43;9.20;99.90
30764;DHT22;17497;51.476;7.770;2023-03-21T03:56:11;9.20;99.90
30764;DHT22;17497;51.476;7.770;2023-03-21T03:58:39;9.20;99.90
30764;DHT22;17497;51.476;7.770;2023-03-21T04:01:11;9.20;99.90
30764;DHT22;17497;51.476;7.770;2023-03-21T04:03:38;9.20;99.90
30764;DHT22;17497;51.476;7.770;2023-03-21T04:06:15;9.20;99.90
30764;DHT22;17497;51.476;7.770;2023-03-21T04:08:42;9.20;99.90
30764;DHT22;17497;51.476;7.770;2023-03-21T04:11:11;9.20;99.90
30764;DHT22;17497;51.476;7.770;2023-03-21T04:13:38;9.30;99.90
30764;DHT22;17497;51.476;7.770;2023-03-21T04:16:05;9.20;99.90
30764;DHT22;17497;51.476;7.770;2023-03-21T04:18:32;9.20;99.90
30764;DHT22;17497;51.476;7.770;2023-03-21T04:20:58;9.30;99.90
30764;DHT22;17497;51.476;7.770;2023-03-21T04:23:25;9.30;99.90
30764;DHT22;17497;51.476;7.770;2023-03-21T04:25:54;9.30;99.90
30764;DHT22;17497;51.476;7.770;2023-03-21T04:28:22;9.30;99.90
30764;DHT22;17497;51.476;7.770;2023-03-21T04:30:49;9.20;99.90
30764;DHT22;17497;51.476;7.770;2023-03-21T04:33:28;9.20;99.90
30764;DHT22;17497;51.476;7.770;2023-03-21T04:35:55;9.20;99.90
30764;DHT22;17497;51.476;7.770;2023-03-21T04:38:22;9.20;99.90
30764;DHT22;17497;51.476;7.770;2023-03-21T04:40:50;9.10;99.90
30764;DHT22;17497;51.476;7.770;2023-03-21T04:43:18;9.00;99.90
30764;DHT22;17497;51.476;7.770;2023-03-21T04:45:44;9.10;99.90
30764;DHT22;17497;51.476;7.770;2023-03-21T04:48:11;9.10;99.90
30764;DHT22;17497;51.476;7.770;2023-03-21T04:50:39;9.00;99.90
30764;DHT22;17497;51.476;7.770;2023-03-21T04:53:06;9.00;99.90
30764;DHT22;17497;51.476;7.770;2023-03-21T04:55:33;8.90;99.90
30764;DHT22;17497;51.476;7.770;2023-03-21T04:57:59;8.80;99.90
30764;DHT22;17497;51.476;7.770;2023-03-21T05:00:26;8.70;99.90
30764;DHT22;17497;51.476;7.770;2023-03-21T05:02:53;8.80;99.90
30764;DHT22;17497;51.476;7.770;2023-03-21T05:05:20;8.90;99.90
30764;DHT22;17497;51.476;7.770;2023-03-21T05:07:46;9.00;99.90
30764;DHT22;17497;51.476;7.770;2023-03-21T05:10:13;9.10;99.90
30764;DHT22;17497;51.476;7.770;2023-03-21T05:12:40;9.10;99.90
30764;DHT22;17497;51.476;7.770;2023-03-21T05:15:07;9.10;99.90
30764;DHT22;17497;51.476;7.770;2023-03-21T05:17:34;9.10;99.90
30764;DHT22;17497;51.476;7.770;2023-03-21T05:20:02;9.00;99.90
30764;DHT22;17497;51.476;7.770;2023-03-21T05:22:29;9.00;99.90
30764;DHT22;17497;51.476;7.770;2023-03-21T05:25:07;9.10;99.90
30764;DHT22;17497;51.476;7.770;2023-03-21T05:27:34;9.10;99.90
30764;DHT22;17497;51.476;7.770;2023-03-21T05:30:11;9.00;99.90
30764;DHT22;17497;51.476;7.770;2023-03-21T05:32:38;9.10;99.90
30764;DHT22;17497;51.476;7.770;2023-03-21T05:35:05;9.10;99.90
30764;DHT22;17497;51.476;7.770;2023-03-21T05:37:31;9.10;99.90
30764;DHT22;17497;51.476;7.770;2023-03-21T05:39:58;9.20;99.90
30764;DHT22;17497;51.476;7.770;2023-03-21T05:42:25;9.20;99.90
30764;DHT22;17497;51.476;7.770;2023-03-21T05:44:51;9.20;99.90
30764;DHT22;17497;51.476;7.770;2023-03-21T05:47:18;9.30;99.90
30764;DHT22;17497;51.476;7.770;2023-03-21T05:49:45;9.30;99.90
30764;DHT22;17497;51.476;7.770;2023-03-21T05:52:12;9.30;99.90
30764;DHT22;17497;51.476;7.770;2023-03-21T05:54:39;9.40;99.90
30764;DHT22;17497;51.476;7.770;2023-03-21T05:57:06;9.40;99.90
30764;DHT22;17497;51.476;7.770;2023-03-21T05:59:32;9.40;99.90
30764;DHT22;17497;51.476;7.770;2023-03-21T06:01:59;9.50;99.90
30764;DHT22;17497;51.476;7.770;2023-03-21T06:04:26;9.50;99.90
30764;DHT22;17497;51.476;7.770;2023-03-21T06:06:53;9.40;99.90
30764;DHT22;17497;51.476;7.770;2023-03-21T06:09:20;9.40;99.90
30764;DHT22;17497;51.476;7.770;2023-03-21T06:11:48;9.50;99.90
30764;DHT22;17497;51.476;7.770;2023-03-21T06:14:16;9.50;99.90
30764;DHT22;17497;51.476;7.770;2023-03-21T06:16:43;9.40;99.90
30764;DHT22;17497;51.476;7.770;2023-03-21T06:19:09;9.30;99.90
30764;DHT22;17497;51.476;7.770;2023-03-21T06:21:36;9.30;99.90
30764;DHT22;17497;51.476;7.770;2023-03-21T06:24:03;9.40;99.90
30764;DHT22;17497;51.476;7.770;2023-03-21T06:26:29;9.50;99.90
30764;DHT22;17497;51.476;7.770;2023-03-21T06:28:56;9.50;99.90
30764;DHT22;17497;51.476;7.770;2023-03-21T06:31:22;9.30;99.90
30764;DHT22;17497;51.476;7.770;2023-03-21T06:33:50;9.40;99.90
30764;DHT22;17497;51.476;7.770;2023-03-21T06:36:17;9.30;99.90
30764;DHT22;17497;51.476;7.770;2023-03-21T06:38:44;9.40;99.90
30764;DHT22;17497;51.476;7.770;2023-03-21T06:41:12;9.30;99.90
30764;DHT22;17497;51.476;7.770;2023-03-21T06:43:38;9.40;99.90
30764;DHT22;17497;51.476;7.770;2023-03-21T06:46:05;9.40;99.90
30764;DHT22;17497;51.476;7.770;2023-03-21T06:48:32;9.40;99.90
30764;DHT22;17497;51.476;7.770;2023-03-21T06:50:58;9.50;99.90
30764;DHT22;17497;51.476;7.770;2023-03-21T06:53:25;9.60;99.90
30764;DHT22;17497;51.476;7.770;2023-03-21T06:55:55;9.80;99.90
30764;DHT22;17497;51.476;7.770;2023-03-21T06:58:23;10.00;99.90
30764;DHT22;17497;51.476;7.770;2023-03-21T07:00:50;10.00;99.90
30764;DHT22;17497;51.476;7.770;2023-03-21T07:03:17;10.20;99.90
30764;DHT22;17497;51.476;7.770;2023-03-21T07:05:44;10.30;99.90
30764;DHT22;17497;51.476;7.770;2023-03-21T07:08:11;10.40;99.90
30764;DHT22;17497;51.476;7.770;2023-03-21T07:10:42;10.30;99.90
30764;DHT22;17497;51.476;7.770;2023-03-21T07:13:11;10.30;99.90
30764;DHT22;17497;51.476;7.770;2023-03-21T07:15:38;10.20;99.90
30764;DHT22;17497;51.476;7.770;2023-03-21T07:18:06;10.20;99.90
30764;DHT22;17497;51.476;7.770;2023-03-21T07:20:34;10.10;99.90
30764;DHT22;17497;51.476;7.770;2023-03-21T07:23:01;10.10;99.90
30764;DHT22;17497;51.476;7.770;2023-03-21T07:25:27;10.10;99.90
30764;DHT22;17497;51.476;7.770;2023-03-21T07:27:54;10.00;99.90
30764;DHT22;17497;51.476;7.770;2023-03-21T07:30:21;10.00;99.90
30764;DHT22;17497;51.476;7.770;2023-03-21T07:32:47;10.00;99.90
30764;DHT22;17497;51.476;7.770;2023-03-21T07:35:15;9.90;99.90
30764;DHT22;17497;51.476;7.770;2023-03-21T07:37:42;9.60;99.90
30764;DHT22;17497;51.476;7.770;2023-03-21T07:40:09;9.60;99.90
30764;DHT22;17497;51.476;7.770;2023-03-21T07:42:36;9.60;99.90
30764;DHT22;17497;51.476;7.770;2023-03-21T07:45:03;9.60;99.90
30764;DHT22;17497;51.476;7.770;2023-03-21T07:47:30;9.60;99.90
30764;DHT22;17497;51.476;7.770;2023-03-21T07:49:57;9.70;99.90
30764;DHT22;17497;51.476;7.770;2023-03-21T07:52:24;9.70;99.90
30764;DHT22;17497;51.476;7.770;2023-03-21T07:54:51;9.70;99.90
30764;DHT22;17497;51.476;7.770;2023-03-21T07:57:17;9.80;99.90
30764;DHT22;17497;51.476;7.770;2023-03-21T07:59:44;9.70;99.90
30764;DHT22;17497;51.476;7.770;2023-03-21T08:02:14;9.70;99.90
30764;DHT22;17497;51.476;7.770;2023-03-21T08:04:42;9.60;99.90
30764;DHT22;17497;51.476;7.770;2023-03-21T08:07:08;9.50;99.90
30764;DHT22;17497;51.476;7.770;2023-03-21T08:09:35;9.50;99.90
30764;DHT22;17497;51.476;7.770;2023-03-21T08:12:03;9.50;99.90
30764;DHT22;17497;51.476;7.770;2023-03-21T08:14:29;9.40;99.90
30764;DHT22;17497;51.476;7.770;2023-03-21T08:16:56;9.40;99.90
30764;DHT22;17497;51.476;7.770;2023-03-21T08:19:23;9.40;99.90
30764;DHT22;17497;51.476;7.770;2023-03-21T08:21:50;9.30;99.90
30764;DHT22;17497;51.476;7.770;2023-03-21T08:24:17;9.30;99.90
30764;DHT22;17497;51.476;7.770;2023-03-21T08:26:44;9.20;99.90
30764;DHT22;17497;51.476;7.770;2023-03-21T08:29:12;9.10;99.90
30764;DHT22;17497;51.476;7.770;2023-03-21T08:31:39;9.10;99.90
30764;DHT22;17497;51.476;7.770;2023-03-21T08:34:05;9.10;99.90
30764;DHT22;17497;51.476;7.770;2023-03-21T08:36:34;9.10;99.90
30764;DHT22;17497;51.476;7.770;2023-03-21T08:39:02;9.10;99.90
30764;DHT22;17497;51.476;7.770;2023-03-21T08:41:32;9.20;99.90
30764;DHT22;17497;51.476;7.770;2023-03-21T08:43:59;9.30;99.90
30764;DHT22;17497;51.476;7.770;2023-03-21T08:46:26;9.30;99.90
30764;DHT22;17497;51.476;7.770;2023-03-21T08:48:53;9.40;99.90
30764;DHT22;17497;51.476;7.770;2023-03-21T08:51:20;9.50;99.90
30764;DHT22;17497;51.476;7.770;2023-03-21T08:53:47;9.50;99.90
30764;DHT22;17497;51.476;7.770;2023-03-21T08:56:16;9.40;99.90
30764;DHT22;17497;51.476;7.770;2023-03-21T08:58:43;9.50;99.90
30764;DHT22;17497;51.476;7.770;2023-03-21T09:01:10;9.50;99.90
30764;DHT22;17497;51.476;7.770;2023-03-21T09:03:41;9.50;99.90
30764;DHT22;17497;51.476;7.770;2023-03-21T09:06:08;9.50;99.90
30764;DHT22;17497;51.476;7.770;2023-03-21T09:08:37;9.50;99.90
30764;DHT22;17497;51.476;7.770;2023-03-21T09:11:04;9.50;99.90
30764;DHT22;17497;51.476;7.770;2023-03-21T09:13:30;9.50;99.90
30764;DHT22;17497;51.476;7.770;2023-03-21T09:15:57;9.50;99.90
30764;DHT22;17497;51.476;7.770;2023-03-21T09:18:27;9.50;99.90
30764;DHT22;17497;51.476;7.770;2023-03-21T09:21:14;9.50;99.90
30764;DHT22;17497;51.476;7.770;2023-03-21T09:23:42;9.60;99.90
30764;DHT22;17497;51.476;7.770;2023-03-21T09:26:10;9.60;99.90
30764;DHT22;17497;51.476;7.770;2023-03-21T09:28:37;9.70;99.90
30764;DHT22;17497;51.476;7.770;2023-03-21T09:31:05;9.80;99.90
30764;DHT22;17497;51.476;7.770;2023-03-21T09:33:33;9.80;99.90
30764;DHT22;17497;51.476;7.770;2023-03-21T09:36:00;9.80;99.90
30764;DHT22;17497;51.476;7.770;2023-03-21T09:38:27;9.90;99.90
30764;DHT22;17497;51.476;7.770;2023-03-21T09:49:17;9.80;99.90
30764;DHT22;17497;51.476;7.770;2023-03-21T09:51:46;9.80;99.90
30764;DHT22;17497;51.476;7.770;2023-03-21T09:54:22;9.90;99.90
30764;DHT22;17497;51.476;7.770;2023-03-21T09:56:51;9.90;99.90
30764;DHT22;17497;51.476;7.770;2023-03-21T09:59:21;10.00;99.90
30764;DHT22;17497;51.476;7.770;2023-03-21T10:01:50;10.00;99.90
30764;DHT22;17497;51.476;7.770;2023-03-21T10:04:17;9.90;99.90
30764;DHT22;17497;51.476;7.770;2023-03-21T10:06:46;9.90;99.90
30764;DHT22;17497;51.476;7.770;2023-03-21T10:09:18;10.00;99.90
30764;DHT22;17497;51.476;7.770;2023-03-21T10:11:54;10.10;99.90
30764;DHT22;17497;51.476;7.770;2023-03-21T10:16:54;10.10;99.90
30764;DHT22;17497;51.476;7.770;2023-03-21T10:19:22;10.20;99.90
30764;DHT22;17497;51.476;7.770;2023-03-21T10:21:49;10.20;99.90
30764;DHT22;17497;51.476;7.770;2023-03-21T10:24:27;10.20;99.90
30764;DHT22;17497;51.476;7.770;2023-03-21T10:26:54;10.20;99.90
30764;DHT22;17497;51.476;7.770;2023-03-21T10:29:23;10.10;99.90
30764;DHT22;17497;51.476;7.770;2023-03-21T10:31:51;9.90;99.90
30764;DHT22;17497;51.476;7.770;2023-03-21T10:34:24;9.90;99.90
30764;DHT22;17497;51.476;7.770;2023-03-21T10:36:53;9.80;99.90
30764;DHT22;17497;51.476;7.770;2023-03-21T10:39:23;9.80;99.90
30764;DHT22;17497;51.476;7.770;2023-03-21T10:41:51;9.80;99.90
30764;DHT22;17497;51.476;7.770;2023-03-21T10:44:18;9.70;99.90
30764;DHT22;17497;51.476;7.770;2023-03-21T10:46:55;9.70;99.90
30764;DHT22;17497;51.476;7.770;2023-03-21T10:49:23;9.80;99.90
30764;DHT22;17497;51.476;7.770;2023-03-21T10:52:12;9.80;99.90
30764;DHT22;17497;51.476;7.770;2023-03-21T10:54:37;9.80;99.90
30764;DHT22;17497;51.476;7.770;2023-03-21T10:57:25;9.80;99.90
30764;DHT22;17497;51.476;7.770;2023-03-21T10:59:54;9.80;99.90
30764;DHT22;17497;51.476;7.770;2023-03-21T11:02:24;9.80;99.90
30764;DHT22;17497;51.476;7.770;2023-03-21T11:04:52;9.80;99.90
30764;DHT22;17497;51.476;7.770;2023-03-21T11:07:19;9.90;99.90
30764;DHT22;17497;51.476;7.770;2023-03-21T11:12:17;9.90;99.90
30764;DHT22;17497;51.476;7.770;2023-03-21T11:14:45;9.90;99.90
30764;DHT22;17497;51.476;7.770;2023-03-21T11:17:18;10.00;99.90
30764;DHT22;17497;51.476;7.770;2023-03-21T11:19:49;10.00;99.90
30764;DHT22;17497;51.476;7.770;2023-03-21T11:22:17;10.00;99.90
30764;DHT22;17497;51.476;7.770;2023-03-21T11:24:48;10.10;99.90
30764;DHT22;17497;51.476;7.770;2023-03-21T11:27:15;10.10;99.90
30764;DHT22;17497;51.476;7.770;2023-03-21T11:29:49;10.20;99.90
30764;DHT22;17497;51.476;7.770;2023-03-21T11:32:32;10.30;99.90
30764;DHT22;17497;51.476;7.770;2023-03-21T11:37:30;10.50;99.90
30764;DHT22;17497;51.476;7.770;2023-03-21T11:40:06;10.60;99.90
30764;DHT22;17497;51.476;7.770;2023-03-21T11:42:39;10.60;99.90
30764;DHT22;17497;51.476;7.770;2023-03-21T11:45:11;10.60;99.90
30764;DHT22;17497;51.476;7.770;2023-03-21T11:47:38;10.60;99.90
30764;DHT22;17497;51.476;7.770;2023-03-21T11:50:47;10.60;99.90
30764;DHT22;17497;51.476;7.770;2023-03-21T11:53:44;10.70;99.90
30764;DHT22;17497;51.476;7.770;2023-03-21T11:55:46;10.80;99.90
30764;DHT22;17497;51.476;7.770;2023-03-21T12:00:49;10.90;99.90
30764;DHT22;17497;51.476;7.770;2023-03-21T12:03:23;10.90;99.90
30764;DHT22;17497;51.476;7.770;2023-03-21T12:06:01;10.90;99.90
30764;DHT22;17497;51.476;7.770;2023-03-21T12:08:35;11.10;99.90
30764;DHT22;17497;51.476;7.770;2023-03-21T12:11:10;11.30;99.90
30764;DHT22;17497;51.476;7.770;2023-03-21T12:13:53;11.30;99.90
30764;DHT22;17497;51.476;7.770;2023-03-21T12:16:26;11.50;99.90
30764;DHT22;17497;51.476;7.770;2023-03-21T12:24:24;11.60;99.90
30764;DHT22;17497;51.476;7.770;2023-03-21T12:31:59;11.80;99.90
30764;DHT22;17497;51.476;7.770;2023-03-21T12:39:28;11.60;99.90
30764;DHT22;17497;51.476;7.770;2023-03-21T12:44:23;11.60;99.90
30764;DHT22;17497;51.476;7.770;2023-03-21T12:46:54;11.60;99.90
30764;DHT22;17497;51.476;7.770;2023-03-21T12:51:50;11.40;99.90
30764;DHT22;17497;51.476;7.770;2023-03-21T12:54:25;11.40;99.90
30764;DHT22;17497;51.476;7.770;2023-03-21T12:57:02;11.40;99.90
30764;DHT22;17497;51.476;7.770;2023-03-21T12:59:32;11.40;99.90
30764;DHT22;17497;51.476;7.770;2023-03-21T13:02:04;11.40;99.90
30764;DHT22;17497;51.476;7.770;2023-03-21T13:04:36;11.30;99.90
30764;DHT22;17497;51.476;7.770;2023-03-21T13:07:06;11.30;99.90
30764;DHT22;17497;51.476;7.770;2023-03-21T13:09:36;11.30;99.90
30764;DHT22;17497;51.476;7.770;2023-03-21T13:14:35;11.40;99.90
30764;DHT22;17497;51.476;7.770;2023-03-21T13:17:13;11.50;99.90
30764;DHT22;17497;51.476;7.770;2023-03-21T13:22:31;11.60;99.90
30764;DHT22;17497;51.476;7.770;2023-03-21T13:25:22;11.60;99.90
30764;DHT22;17497;51.476;7.770;2023-03-21T13:28:01;11.70;99.90
30764;DHT22;17497;51.476;7.770;2023-03-21T13:30:29;11.70;99.90
30764;DHT22;17497;51.476;7.770;2023-03-21T13:33:04;11.60;99.90
30764;DHT22;17497;51.476;7.770;2023-03-21T13:35:35;11.60;99.90
30764;DHT22;17497;51.476;7.770;2023-03-21T13:38:05;11.40;99.90
30764;DHT22;17497;51.476;7.770;2023-03-21T13:40:50;11.30;99.90
30764;DHT22;17497;51.476;7.770;2023-03-21T13:43:31;11.10;99.90
30764;DHT22;17497;51.476;7.770;2023-03-21T13:51:15;10.90;99.90
30764;DHT22;17497;51.476;7.770;2023-03-21T13:53:56;11.00;99.90
30764;DHT22;17497;51.476;7.770;2023-03-21T13:56:24;11.00;99.90
30764;DHT22;17497;51.476;7.770;2023-03-21T13:58:58;11.10;99.90
30764;DHT22;17497;51.476;7.770;2023-03-21T14:03:56;11.10;99.90
30764;DHT22;17497;51.476;7.770;2023-03-21T14:06:25;11.10;99.90
30764;DHT22;17497;51.476;7.770;2023-03-21T14:08:56;11.10;99.90
30764;DHT22;17497;51.476;7.770;2023-03-21T14:11:23;11.10;99.90
30764;DHT22;17497;51.476;7.770;2023-03-21T14:13:49;11.10;99.90
30764;DHT22;17497;51.476;7.770;2023-03-21T14:16:18;11.10;99.90
30764;DHT22;17497;51.476;7.770;2023-03-21T14:18:47;11.10;99.90
30764;DHT22;17497;51.476;7.770;2023-03-21T14:21:25;11.10;99.90
30764;DHT22;17497;51.476;7.770;2023-03-21T14:23:57;11.20;99.90
30764;DHT22;17497;51.476;7.770;2023-03-21T14:26:25;11.30;99.90
30764;DHT22;17497;51.476;7.770;2023-03-21T14:28:52;11.30;99.90
30764;DHT22;17497;51.476;7.770;2023-03-21T14:31:19;11.20;99.90
30764;DHT22;17497;51.476;7.770;2023-03-21T14:33:50;11.20;99.90
30764;DHT22;17497;51.476;7.770;2023-03-21T14:36:20;11.20;99.90
30764;DHT22;17497;51.476;7.770;2023-03-21T14:41:41;11.20;99.90
30764;DHT22;17497;51.476;7.770;2023-03-21T14:46:35;11.30;99.90
30764;DHT22;17497;51.476;7.770;2023-03-21T14:49:18;11.30;99.90
30764;DHT22;17497;51.476;7.770;2023-03-21T14:51:45;11.40;99.90
30764;DHT22;17497;51.476;7.770;2023-03-21T14:54:13;11.40;99.90
30764;DHT22;17497;51.476;7.770;2023-03-21T14:56:47;11.40;99.90
30764;DHT22;17497;51.476;7.770;2023-03-21T14:59:16;11.40;99.90
30764;DHT22;17497;51.476;7.770;2023-03-21T15:01:43;11.40;99.90
30764;DHT22;17497;51.476;7.770;2023-03-21T15:04:11;11.50;99.90
30764;DHT22;17497;51.476;7.770;2023-03-21T15:06:56;11.60;99.90
30764;DHT22;17497;51.476;7.770;2023-03-21T15:09:24;11.60;99.90
30764;DHT22;17497;51.476;7.770;2023-03-21T15:11:53;11.60;99.90
30764;DHT22;17497;51.476;7.770;2023-03-21T15:14:23;11.60;99.90
30764;DHT22;17497;51.476;7.770;2023-03-21T15:16:50;11.60;99.90
30764;DHT22;17497;51.476;7.770;2023-03-21T15:19:17;11.60;99.90
30764;DHT22;17497;51.476;7.770;2023-03-21T15:21:49;11.40;99.90
30764;DHT22;17497;51.476;7.770;2023-03-21T15:24:17;11.50;99.90
30764;DHT22;17497;51.476;7.770;2023-03-21T15:26:47;11.60;99.90
30764;DHT22;17497;51.476;7.770;2023-03-21T15:29:16;11.70;99.90
30764;DHT22;17497;51.476;7.770;2023-03-21T15:31:45;11.60;99.90
30764;DHT22;17497;51.476;7.770;2023-03-21T15:34:16;11.90;99.90
30764;DHT22;17497;51.476;7.770;2023-03-21T15:36:45;11.90;99.90
30764;DHT22;17497;51.476;7.770;2023-03-21T15:39:13;11.90;99.90
30764;DHT22;17497;51.476;7.770;2023-03-21T15:41:40;12.00;99.90
30764;DHT22;17497;51.476;7.770;2023-03-21T15:49:29;11.80;99.90
30764;DHT22;17497;51.476;7.770;2023-03-21T15:54:43;12.00;99.90
30764;DHT22;17497;51.476;7.770;2023-03-21T16:02:34;12.00;99.90
30764;DHT22;17497;51.476;7.770;2023-03-21T16:07:46;12.20;99.90
30764;DHT22;17497;51.476;7.770;2023-03-21T16:10:24;12.50;99.90
30764;DHT22;17497;51.476;7.770;2023-03-21T16:12:52;12.90;99.90
30764;DHT22;17497;51.476;7.770;2023-03-21T16:15:19;13.60;99.90
30764;DHT22;17497;51.476;7.770;2023-03-21T16:17:47;13.80;99.90
30764;DHT22;17497;51.476;7.770;2023-03-21T16:20:18;14.10;99.90
30764;DHT22;17497;51.476;7.770;2023-03-21T16:22:46;13.90;99.90
30764;DHT22;17497;51.476;7.770;2023-03-21T16:25:12;13.80;99.90
30764;DHT22;17497;51.476;7.770;2023-03-21T16:27:40;13.70;99.90
30764;DHT22;17497;51.476;7.770;2023-03-21T16:30:07;13.70;99.90
30764;DHT22;17497;51.476;7.770;2023-03-21T16:32:35;13.50;99.90
30764;DHT22;17497;51.476;7.770;2023-03-21T16:35:02;13.20;99.90
30764;DHT22;17497;51.476;7.770;2023-03-21T16:37:29;13.00;99.90
30764;DHT22;17497;51.476;7.770;2023-03-21T16:39:56;12.90;99.90
30764;DHT22;17497;51.476;7.770;2023-03-21T16:42:22;12.70;99.90
30764;DHT22;17497;51.476;7.770;2023-03-21T16:44:49;12.60;99.90
30764;DHT22;17497;51.476;7.770;2023-03-21T16:47:18;12.50;99.90
30764;DHT22;17497;51.476;7.770;2023-03-21T16:49:45;12.40;99.90
30764;DHT22;17497;51.476;7.770;2023-03-21T16:52:12;12.30;99.90
30764;DHT22;17497;51.476;7.770;2023-03-21T16:54:39;12.40;99.90
30764;DHT22;17497;51.476;7.770;2023-03-21T16:57:07;12.40;99.90
30764;DHT22;17497;51.476;7.770;2023-03-21T16:59:34;12.40;99.90
30764;DHT22;17497;51.476;7.770;2023-03-21T17:02:01;12.40;99.90
30764;DHT22;17497;51.476;7.770;2023-03-21T17:04:28;12.40;99.90
30764;DHT22;17497;51.476;7.770;2023-03-21T17:06:54;12.30;99.90
30764;DHT22;17497;51.476;7.770;2023-03-21T17:09:22;12.10;99.90
30764;DHT22;17497;51.476;7.770;2023-03-21T17:11:49;11.90;99.90
30764;DHT22;17497;51.476;7.770;2023-03-21T17:14:16;11.80;99.90
30764;DHT22;17497;51.476;7.770;2023-03-21T17:16:44;11.70;99.90
30764;DHT22;17497;51.476;7.770;2023-03-21T17:21:37;11.50;99.90
30764;DHT22;17497;51.476;7.770;2023-03-21T17:24:04;11.50;99.90
30764;DHT22;17497;51.476;7.770;2023-03-21T17:26:30;11.40;99.90
30764;DHT22;17497;51.476;7.770;2023-03-21T17:28:57;11.20;99.90
30764;DHT22;17497;51.476;7.770;2023-03-21T17:31:25;11.10;99.90
30764;DHT22;17497;51.476;7.770;2023-03-21T17:33:52;11.20;99.90
30764;DHT22;17497;51.476;7.770;2023-03-21T17:36:20;11.10;99.90
30764;DHT22;17497;51.476;7.770;2023-03-21T17:38:48;11.00;99.90
30764;DHT22;17497;51.476;7.770;2023-03-21T17:41:16;11.00;99.90
30764;DHT22;17497;51.476;7.770;2023-03-21T17:43:43;10.90;99.90
30764;DHT22;17497;51.476;7.770;2023-03-21T17:46:10;10.80;99.90
30764;DHT22;17497;51.476;7.770;2023-03-21T17:48:37;10.90;99.90
30764;DHT22;17497;51.476;7.770;2023-03-21T17:51:03;10.90;99.90
30764;DHT22;17497;51.476;7.770;2023-03-21T17:53:30;10.90;99.90
30764;DHT22;17497;51.476;7.770;2023-03-21T17:55:57;10.90;99.90
30764;DHT22;17497;51.476;7.770;2023-03-21T17:58:24;10.90;99.90